This is the latest recevied weather packets stored in our database for station/object DL2GPS-3. If no packets are shown the sender has not sent any weather packets the latest 10 day(s).
| Time | Temp. | Humidity | Pressure | Rain* | Wind** | Luminosity | Snow |
|---|---|---|---|---|---|---|---|
| 1777906654 | 16.67° C | 61% | 1015.3 hPa | - | - | - | - |
| 1777906048 | 16.67° C | 61% | 1015.5 hPa | - | - | - | - |
| 1777905444 | 17.22° C | 58% | 1015.5 hPa | - | - | - | - |
| 1777904839 | 17.78° C | 55% | 1015.4 hPa | - | - | - | - |
| 1777904235 | 18.33° C | 55% | 1015.3 hPa | - | - | - | - |
| 1777903631 | 18.33° C | 54% | 1015.3 hPa | - | - | - | - |
| 1777903025 | 17.78° C | 54% | 1015.3 hPa | - | - | - | - |
| 1777902420 | 17.78° C | 57% | 1015.5 hPa | - | - | - | - |
| 1777901816 | 17.22° C | 57% | 1015.4 hPa | - | - | - | - |
| 1777901210 | 16.67° C | 59% | 1015.5 hPa | - | - | - | - |
| 1777900605 | 17.22° C | 53% | 1015.6 hPa | - | - | - | - |
| 1777900000 | 17.78° C | 48% | 1015.5 hPa | - | - | - | - |
| 1777899395 | 18.33° C | 46% | 1015.5 hPa | - | - | - | - |
| 1777898789 | 18.89° C | 45% | 1015.5 hPa | - | - | - | - |
| 1777898184 | 17.78° C | 47% | 1015.4 hPa | - | - | - | - |
| 1777897579 | 17.78° C | 47% | 1015.4 hPa | - | - | - | - |
| 1777896974 | 17.22° C | 47% | 1015.4 hPa | - | - | - | - |
| 1777896368 | 18.33° C | 40% | 1015.5 hPa | - | - | - | - |
| 1777895764 | 18.89° C | 41% | 1015.5 hPa | - | - | - | - |
| 1777895159 | 17.78° C | 41% | 1015.4 hPa | - | - | - | - |
| 1777894554 | 17.78° C | 40% | 1015.6 hPa | - | - | - | - |
| 1777893948 | 18.89° C | 39% | 1015.6 hPa | - | - | - | - |
| 1777893343 | 18.33° C | 39% | 1015.8 hPa | - | - | - | - |
| 1777892738 | 19.44° C | 38% | 1015.7 hPa | - | - | - | - |
| 1777892133 | 21.67° C | 34% | 1015.8 hPa | - | - | - | - |
* Rain since midnight (hover to see other rain measurements)
** Current wind speed in m/s (hover to see current wind gust speed)